Don's Testing Zone


Current Conditions
weather data
source:

National Weather Service
Clear Russellville, AR
Clear, 39°F
Monday, October 22, 2018 11:53 PM CDT
Temperature: 39°F/4°C
Humidity: 100%
Barometer: 30.24in/1023.9mb Barometer Steady
Wind: CALM at 0mph/0kmh
View other cities:
Searcy | Little Rock | Hot Springs | Russellville | More...
Astronomical Conditions (Clear Sky Clock)
Searcy Clear Sky Clock
Find more weather in Little Rock, AR
    

Radar Images

NWS
    Wx Underground

KARK
   

Solar-Terrestrial Data

NWS METAR weather data

ADDS - METARS form results





Aviation Digital Data Service (ADDS) Output produced by METARs form (0541 UTC 22 October 2018) found at http://www.aviationweather.gov/metar/data/ 

KRUE 220453Z AUTO 00000KT 10SM CLR 04/04 A3024 RMK AO2 SLP239 T00440039

KRUE 220353Z AUTO 00000KT 10SM CLR 04/04 A3026 RMK AO2 SLP245 T00440044

KRUE 220253Z AUTO 00000KT 10SM CLR 04/04 A3027 RMK AO2 SLP246 T00440039 50001

KRUE 220153Z AUTO 00000KT 10SM CLR 05/04 A3027 RMK AO2 SLP248 T00500044

KRUE 220053Z AUTO 00000KT 10SM CLR 06/05 A3026 RMK AO2 SLP246 T00610050

KRUE 212353Z AUTO 00000KT 10SM CLR 08/05 A3026 RMK AO2 SLP246 T00830050 10150 20083 56013

KRUE 212253Z AUTO 00000KT 10SM CLR 13/00 A3027 RMK AO2 SLP249 T01330000

KRUE 212153Z AUTO VRB03KT 10SM CLR 14/M01 A3029 RMK AO2 SLP253 T01441011

KRUE 212053Z AUTO 18005KT 10SM CLR 14/M02 A3030 RMK AO2 SLP258 T01441017 56026

KRUE 211953Z AUTO 15003KT 10SM CLR 13/M02 A3032 RMK AO2 SLP263 T01331017

KRUE 211853Z AUTO VRB05KT 10SM CLR 13/00 A3034 RMK AO2 SLP271 T01330000

KRUE 211753Z AUTO 07004KT 10SM CLR 12/M01 A3038 RMK AO2 SLP284 T01171006 10122 20028 58018

KRUE 211653Z AUTO VRB04KT 10SM CLR 11/00 A3041 RMK AO2 SLP294 T01060000

KRUE 211553Z AUTO 16005KT 10SM CLR 09/00 A3043 RMK AO2 SLP300 T00890000

KRUE 211453Z AUTO 08006KT 10SM CLR 08/01 A3043 RMK AO2 SLP303 T00780006 50007

KRUE 211353Z AUTO VRB05KT 10SM CLR 07/03 A3044 RMK AO2 SLP304 T00720033

KRUE 211253Z AUTO 00000KT 10SM CLR 03/03 A3042 RMK AO2 SLP297 T00330033

KRUE 211153Z AUTO 00000KT 9SM CLR 03/03 A3041 RMK AO2 SLP296 T00330033 10067 20033 53020

KRUE 211053Z AUTO 00000KT 10SM CLR 04/04 A3039 RMK AO2 SLP287 T00390039

KRUE 210953Z AUTO 00000KT 10SM CLR 04/04 A3037 RMK AO2 SLP280 T00440044

KRUE 210853Z AUTO 00000KT 10SM CLR 06/05 A3035 RMK AO2 SLP275 T00610050 51012

KRUE 210753Z AUTO 00000KT 10SM CLR 06/06 A3035 RMK AO2 SLP272 T00610056

KRUE 210653Z AUTO 00000KT 10SM CLR 06/06 A3034 RMK AO2 SLP270 T00610061

KRUE 210553Z AUTO 00000KT 10SM CLR 07/06 A3032 RMK AO2 SLP263 T00670061 10150 20067 402110067 51010